createdAt,value
2019-05-10T00:00:06.068Z,12.33
2019-05-10T00:02:51.469Z,12.36
2019-05-10T00:05:36.249Z,12.35
2019-05-10T00:08:21.244Z,12.27
2019-05-10T00:10:51.383Z,12.26
2019-05-10T00:13:22.832Z,12.23
2019-05-10T00:15:50.993Z,12.26
2019-05-10T00:18:17.692Z,12.19
2019-05-10T00:20:44.403Z,12.13
2019-05-10T00:23:11.110Z,12.13
2019-05-10T00:25:37.800Z,12.15
2019-05-10T00:28:04.816Z,12.18
2019-05-10T00:30:33.032Z,12.15
2019-05-10T00:33:00.090Z,12.16
2019-05-10T00:35:26.799Z,12.15
2019-05-10T00:37:53.496Z,12.12
2019-05-10T00:40:20.243Z,12.08
2019-05-10T00:42:46.948Z,12.01
2019-05-10T00:45:13.633Z,12.01
2019-05-10T00:47:40.343Z,12.01
2019-05-10T00:50:07.022Z,11.90
2019-05-10T00:52:33.759Z,11.83
2019-05-10T00:55:00.472Z,11.80
2019-05-10T00:57:27.170Z,11.79
2019-05-10T00:59:53.889Z,11.69
2019-05-10T01:02:22.594Z,11.75
2019-05-10T01:04:49.308Z,11.76
2019-05-10T01:07:16.022Z,11.69
2019-05-10T01:09:42.775Z,11.64
2019-05-10T01:12:09.465Z,11.62
2019-05-10T01:14:36.182Z,11.67
2019-05-10T01:17:02.891Z,11.59
2019-05-10T01:19:29.576Z,11.57
2019-05-10T01:21:56.284Z,11.61
2019-05-10T01:24:23.406Z,11.56
2019-05-10T01:26:50.129Z,11.54
2019-05-10T01:29:17.174Z,11.55
2019-05-10T01:31:43.864Z,11.53
2019-05-10T01:34:10.571Z,11.48
2019-05-10T01:36:38.108Z,11.32
2019-05-10T01:39:05.512Z,11.24
2019-05-10T01:41:32.251Z,11.24
2019-05-10T01:43:58.941Z,11.11
2019-05-10T01:46:25.674Z,11.13
2019-05-10T01:48:52.553Z,11.12
2019-05-10T01:51:19.368Z,11.15
2019-05-10T01:53:46.262Z,11.19
2019-05-10T01:56:12.973Z,11.18
2019-05-10T01:58:39.690Z,11.13
2019-05-10T02:01:06.395Z,11.17
2019-05-10T02:03:33.070Z,11.13
2019-05-10T02:05:59.828Z,11.16
2019-05-10T02:08:26.559Z,11.13
2019-05-10T02:10:54.665Z,11.06
2019-05-10T02:13:21.778Z,11.05
2019-05-10T02:15:48.626Z,11.08
2019-05-10T02:18:15.321Z,11.01
2019-05-10T02:20:42.082Z,11.04
2019-05-10T02:23:11.571Z,10.97
2019-05-10T02:25:38.408Z,10.92
2019-05-10T02:28:05.134Z,10.95
2019-05-10T02:30:32.189Z,10.91
2019-05-10T02:32:59.224Z,10.90
2019-05-10T02:35:26.233Z,10.87
2019-05-10T02:37:52.944Z,10.84
2019-05-10T02:40:19.653Z,10.85
2019-05-10T02:42:46.312Z,10.86
2019-05-10T02:45:13.021Z,10.86
2019-05-10T02:47:39.705Z,10.79
2019-05-10T02:50:06.428Z,10.70
2019-05-10T02:52:33.251Z,10.73
2019-05-10T02:55:00.048Z,10.76
2019-05-10T02:57:26.740Z,10.81
2019-05-10T02:59:53.450Z,10.78
2019-05-10T03:02:20.165Z,10.74
2019-05-10T03:04:47.329Z,10.71
2019-05-10T03:07:14.604Z,10.76
2019-05-10T03:09:41.342Z,10.81
2019-05-10T03:12:20.223Z,10.75
2019-05-10T03:14:46.916Z,10.77
2019-05-10T03:17:13.601Z,10.74
2019-05-10T03:19:40.320Z,10.70
2019-05-10T03:22:07.037Z,10.71
2019-05-10T03:24:36.600Z,10.73
2019-05-10T03:27:03.333Z,10.62
2019-05-10T03:29:30.666Z,10.66
2019-05-10T03:32:00.265Z,10.69
2019-05-10T03:34:26.965Z,10.63
2019-05-10T03:36:53.652Z,10.65
2019-05-10T03:39:20.435Z,10.70
2019-05-10T03:41:47.323Z,10.73
2019-05-10T03:44:14.032Z,10.76
2019-05-10T03:46:40.747Z,10.77
2019-05-10T03:49:07.447Z,10.72
2019-05-10T03:51:34.157Z,10.67
2019-05-10T03:54:03.074Z,10.61
2019-05-10T03:56:30.124Z,10.68
2019-05-10T03:58:56.919Z,10.71
2019-05-10T04:01:23.636Z,10.68
2019-05-10T04:03:50.371Z,10.60
2019-05-10T04:06:17.499Z,10.56
2019-05-10T04:08:44.529Z,10.59
2019-05-10T04:11:11.217Z,10.62
2019-05-10T04:13:37.914Z,10.61
2019-05-10T04:16:05.359Z,10.64
2019-05-10T04:18:32.063Z,10.66
2019-05-10T04:20:58.773Z,10.66
2019-05-10T04:23:25.544Z,10.53
2019-05-10T04:25:55.331Z,10.36
2019-05-10T04:28:22.175Z,10.44
2019-05-10T04:30:49.290Z,10.57
2019-05-10T04:33:16.359Z,10.66
2019-05-10T04:35:43.626Z,10.68
2019-05-10T04:38:10.384Z,10.73
2019-05-10T04:40:37.284Z,10.72
2019-05-10T04:43:06.600Z,10.71
2019-05-10T04:45:33.329Z,10.68
2019-05-10T04:48:00.036Z,10.66
2019-05-10T04:50:26.735Z,10.65
2019-05-10T04:52:53.421Z,10.67
2019-05-10T04:55:20.455Z,10.73
2019-05-10T04:57:50.977Z,10.76
2019-05-10T05:00:15.998Z,10.78
2019-05-10T05:02:44.887Z,10.77
2019-05-10T05:05:11.584Z,10.84
2019-05-10T05:07:38.299Z,10.88
2019-05-10T05:10:05.111Z,10.89
2019-05-10T05:12:31.918Z,10.92
2019-05-10T05:14:58.864Z,10.94
2019-05-10T05:17:25.846Z,10.98
2019-05-10T05:19:52.545Z,11.01
2019-05-10T05:22:19.210Z,11.06
2019-05-10T05:24:45.934Z,11.07
2019-05-10T05:27:12.667Z,11.11
2019-05-10T05:29:39.527Z,11.12
2019-05-10T05:32:06.230Z,11.18
2019-05-10T05:34:32.980Z,11.17
2019-05-10T05:37:01.672Z,11.25
2019-05-10T05:39:28.773Z,11.33
2019-05-10T05:41:56.603Z,11.36
2019-05-10T05:44:26.257Z,11.41
2019-05-10T05:46:52.642Z,11.35
2019-05-10T05:49:19.339Z,11.39
2019-05-10T05:51:46.464Z,11.33
2019-05-10T05:54:15.233Z,11.38
2019-05-10T05:56:44.629Z,11.42
2019-05-10T05:59:10.648Z,11.47
2019-05-10T06:01:37.371Z,11.48
2019-05-10T06:04:06.288Z,11.48
2019-05-10T06:06:33.087Z,11.56
2019-05-10T06:09:01.631Z,11.66
2019-05-10T06:11:35.993Z,11.74
2019-05-10T06:14:03.598Z,11.78
2019-05-10T06:16:28.167Z,11.81
2019-05-10T06:18:54.900Z,11.99
2019-05-10T06:21:24.777Z,12.05
2019-05-10T06:23:50.183Z,12.05
2019-05-10T06:26:26.668Z,12.10
2019-05-10T06:29:04.643Z,12.14
2019-05-10T06:31:14.522Z,12.30
2019-05-10T06:33:44.925Z,12.34
2019-05-10T06:36:17.466Z,12.28
2019-05-10T06:38:44.173Z,12.38
2019-05-10T06:41:16.765Z,12.44
2019-05-10T06:43:39.751Z,12.49
2019-05-10T06:46:06.573Z,12.54
2019-05-10T06:48:35.561Z,12.69
2019-05-10T06:51:08.850Z,12.55
2019-05-10T06:53:31.257Z,12.60
2019-05-10T06:55:58.292Z,12.61
2019-05-10T06:58:25.063Z,12.68
2019-05-10T07:00:51.813Z,12.79
2019-05-10T07:03:22.253Z,13.04
2019-05-10T07:05:52.538Z,13.14
2019-05-10T07:08:20.528Z,13.09
2019-05-10T07:10:47.667Z,13.19
2019-05-10T07:13:14.398Z,13.25
2019-05-10T07:15:44.620Z,13.26
2019-05-10T07:18:09.741Z,13.29
2019-05-10T07:20:36.476Z,13.48
2019-05-10T07:23:06.270Z,13.49
2019-05-10T07:25:32.005Z,13.49
2019-05-10T07:27:59.259Z,13.60
2019-05-10T07:30:31.705Z,13.59
2019-05-10T07:32:59.662Z,13.70
2019-05-10T07:35:30.950Z,13.61
2019-05-10T07:37:55.955Z,13.66
2019-05-10T07:40:22.674Z,13.81
2019-05-10T07:42:49.923Z,13.88
2019-05-10T07:45:18.710Z,13.78
2019-05-10T07:47:45.393Z,13.76
2019-05-10T07:50:13.357Z,13.69
2019-05-10T07:52:43.555Z,13.68
2019-05-10T07:55:10.468Z,13.45
2019-05-10T07:57:37.558Z,13.41
2019-05-10T08:00:07.495Z,13.46
2019-05-10T08:02:34.204Z,13.42
2019-05-10T08:05:04.982Z,13.39
2019-05-10T08:07:30.030Z,13.42
2019-05-10T08:09:59.781Z,12.33
2019-05-10T08:12:28.952Z,13.47
2019-05-10T08:14:55.927Z,13.61
2019-05-10T08:17:23.044Z,13.69
2019-05-10T08:19:50.067Z,13.95
2019-05-10T08:22:17.127Z,14.11
2019-05-10T08:24:52.127Z,14.12
2019-05-10T08:27:14.862Z,14.15
2019-05-10T08:29:42.885Z,14.39
2019-05-10T08:32:12.670Z,14.52
2019-05-10T08:34:40.231Z,14.50
2019-05-10T08:37:07.241Z,14.34
2019-05-10T08:39:44.070Z,14.24
2019-05-10T08:42:13.641Z,14.30
2019-05-10T08:44:32.667Z,14.13
2019-05-10T08:47:02.407Z,14.16
2019-05-10T08:49:35.758Z,14.16
2019-05-10T08:51:58.749Z,14.09
2019-05-10T08:54:26.551Z,14.38
2019-05-10T08:57:01.080Z,14.50
2019-05-10T08:59:26.137Z,14.63
2019-05-10T09:01:53.835Z,14.53
2019-05-10T09:04:22.227Z,14.50
2019-05-10T09:06:55.492Z,14.50
2019-05-10T09:09:27.181Z,14.69
2019-05-10T09:12:04.228Z,14.67
2019-05-10T09:14:32.703Z,14.64
2019-05-10T09:17:04.022Z,14.89
2019-05-10T09:19:37.505Z,14.95
2019-05-10T09:21:57.101Z,14.99
2019-05-10T09:24:23.895Z,14.94
2019-05-10T09:26:54.822Z,15.15
2019-05-10T09:29:21.939Z,15.28
2019-05-10T09:31:50.688Z,15.29
2019-05-10T09:34:17.423Z,15.53
2019-05-10T09:36:47.021Z,15.64
2019-05-10T09:39:17.649Z,15.88
2019-05-10T09:41:42.129Z,15.97
2019-05-10T09:44:10.121Z,15.90
2019-05-10T09:46:36.822Z,15.89
2019-05-10T09:49:08.351Z,15.71
2019-05-10T09:51:33.059Z,15.65
2019-05-10T09:54:00.607Z,15.65
2019-05-10T09:56:32.973Z,15.66
2019-05-10T09:58:58.194Z,15.74
2019-05-10T10:01:25.365Z,15.68
2019-05-10T10:03:52.041Z,15.77
2019-05-10T10:06:21.602Z,15.91
2019-05-10T10:08:53.306Z,15.98
2019-05-10T10:11:18.853Z,16.09
2019-05-10T10:13:58.588Z,16.17
2019-05-10T10:16:19.172Z,16.05
2019-05-10T10:18:47.667Z,16.09
2019-05-10T10:21:18.835Z,16.25
2019-05-10T10:23:43.301Z,16.48
2019-05-10T10:26:12.813Z,16.49
2019-05-10T10:28:39.723Z,16.63
2019-05-10T10:31:08.718Z,16.77
2019-05-10T10:33:37.784Z,16.98
2019-05-10T10:36:07.000Z,16.98
2019-05-10T10:38:37.033Z,17.00
2019-05-10T10:41:03.869Z,16.80
2019-05-10T10:43:31.089Z,16.64
2019-05-10T10:45:59.108Z,16.54
2019-05-10T10:48:28.294Z,16.67
2019-05-10T10:50:58.291Z,16.93
2019-05-10T10:53:24.087Z,16.99
2019-05-10T10:55:54.565Z,16.88
2019-05-10T10:58:20.111Z,16.92
2019-05-10T11:00:48.240Z,17.04
2019-05-10T11:03:15.412Z,17.27
2019-05-10T11:05:42.194Z,17.45
2019-05-10T11:08:11.019Z,17.83
2019-05-10T11:10:37.725Z,17.88
2019-05-10T11:13:11.971Z,17.30
2019-05-10T11:15:36.700Z,17.17
2019-05-10T11:18:03.487Z,17.09
2019-05-10T11:20:31.804Z,17.05
2019-05-10T11:23:00.796Z,16.69
2019-05-10T11:25:30.671Z,17.00
2019-05-10T11:27:59.255Z,17.16
2019-05-10T11:30:26.312Z,17.17
2019-05-10T11:32:53.055Z,17.05
2019-05-10T11:35:28.429Z,16.89
2019-05-10T11:37:50.843Z,16.86
2019-05-10T11:40:28.019Z,17.02
2019-05-10T11:42:47.623Z,17.54
2019-05-10T11:45:14.685Z,17.77
2019-05-10T11:47:41.403Z,18.05
2019-05-10T11:50:10.616Z,18.12
2019-05-10T11:52:37.643Z,18.11
2019-05-10T11:55:04.469Z,18.04
2019-05-10T11:57:32.865Z,18.07
2019-05-10T11:59:59.893Z,18.05
2019-05-10T12:02:37.284Z,18.24
2019-05-10T12:05:02.715Z,18.45
2019-05-10T12:07:45.776Z,18.51
2019-05-10T12:12:53.905Z,18.64
2019-05-10T12:15:14.082Z,19.06
2019-05-10T12:17:43.822Z,19.33
2019-05-10T12:20:16.715Z,19.70
2019-05-10T12:22:47.198Z,19.96
2019-05-10T12:25:28.332Z,19.91
2019-05-10T12:26:19.633Z,18.50
2019-05-10T12:27:45.167Z,19.95
2019-05-10T12:30:07.372Z,19.95
2019-05-10T12:32:38.757Z,19.83
2019-05-10T12:35:05.402Z,19.77
2019-05-10T12:37:32.244Z,19.68
2019-05-10T12:40:08.995Z,19.48
2019-05-10T12:42:28.326Z,19.83
2019-05-10T12:44:56.089Z,19.87
2019-05-10T12:47:23.019Z,20.09
2019-05-10T12:49:53.950Z,20.14
2019-05-10T12:52:22.053Z,19.83
2019-05-10T12:54:47.530Z,19.82
2019-05-10T12:57:14.296Z,19.73
2019-05-10T12:59:41.026Z,19.91
2019-05-10T13:02:11.088Z,20.31
2019-05-10T13:04:40.558Z,20.68
2019-05-10T13:07:05.355Z,20.54
2019-05-10T13:09:39.904Z,20.14
2019-05-10T13:12:04.008Z,20.22
2019-05-10T13:14:30.128Z,20.88
2019-05-10T13:16:56.940Z,20.85
2019-05-10T13:19:23.632Z,20.85
2019-05-10T13:21:53.779Z,20.69
2019-05-10T13:24:19.107Z,20.81
2019-05-10T13:26:46.718Z,21.00
2019-05-10T13:29:13.469Z,21.16
2019-05-10T13:31:44.413Z,20.69
2019-05-10T13:34:14.373Z,20.31
2019-05-10T13:36:41.088Z,20.03
2019-05-10T13:40:18.700Z,20.15
2019-05-10T13:42:51.997Z,20.20
2019-05-10T13:45:18.746Z,19.87
2019-05-10T13:47:45.796Z,19.89
2019-05-10T13:50:12.503Z,19.82
2019-05-10T13:52:41.426Z,20.07
2019-05-10T13:55:08.182Z,20.26
2019-05-10T13:57:35.282Z,20.20
2019-05-10T14:00:02.593Z,20.12
2019-05-10T14:02:34.565Z,19.70
2019-05-10T14:05:00.676Z,19.46
2019-05-10T14:07:27.378Z,19.47
2019-05-10T14:09:54.102Z,19.53
2019-05-10T14:12:23.422Z,19.60
2019-05-10T14:14:49.491Z,19.50
2019-05-10T14:17:16.221Z,19.47
2019-05-10T14:19:42.918Z,19.47
2019-05-10T14:22:09.705Z,19.58
2019-05-10T14:24:36.521Z,19.45
2019-05-10T14:27:03.262Z,19.42
2019-05-10T14:29:34.319Z,19.26
2019-05-10T14:31:58.690Z,19.16
2019-05-10T14:34:25.528Z,19.05
2019-05-10T14:36:52.263Z,19.02
2019-05-10T14:39:21.441Z,19.00
2019-05-10T14:41:50.861Z,18.94
2019-05-10T14:44:18.463Z,18.96
2019-05-10T14:46:46.120Z,18.84
2019-05-10T14:49:12.976Z,18.86
2019-05-10T14:51:56.606Z,18.98
2019-05-10T14:54:09.025Z,19.31
2019-05-10T14:56:35.986Z,19.57
2019-05-10T14:59:04.526Z,19.88
2019-05-10T15:01:36.985Z,20.01
2019-05-10T15:04:00.262Z,19.45
2019-05-10T15:06:30.897Z,19.09
2019-05-10T15:08:55.950Z,19.11
2019-05-10T15:11:26.511Z,19.12
2019-05-10T15:13:51.560Z,19.51
2019-05-10T15:16:26.878Z,20.05
2019-05-10T15:18:47.618Z,20.05
2019-05-10T15:21:14.943Z,19.82
2019-05-10T15:23:42.069Z,19.39
2019-05-10T15:26:11.484Z,19.30
2019-05-10T15:28:40.781Z,19.15
2019-05-10T15:31:06.112Z,18.98
2019-05-10T15:33:33.533Z,19.72
2019-05-10T15:36:00.334Z,20.16
2019-05-10T15:38:31.804Z,20.69
2019-05-10T15:40:58.630Z,20.68
2019-05-10T15:43:25.362Z,20.50
2019-05-10T15:45:53.151Z,20.47
2019-05-10T15:48:20.760Z,20.25
2019-05-10T15:50:47.554Z,20.12
2019-05-10T15:53:19.599Z,19.83
2019-05-10T15:55:43.230Z,19.71
2019-05-10T15:58:09.950Z,19.66
2019-05-10T16:00:39.106Z,19.62
2019-05-10T16:03:05.352Z,19.56
2019-05-10T16:05:43.164Z,19.29
2019-05-10T16:08:00.871Z,19.26
2019-05-10T16:10:38.766Z,19.21
2019-05-10T16:12:56.503Z,19.24
2019-05-10T16:15:23.241Z,19.17
2019-05-10T16:17:53.799Z,18.79
2019-05-10T16:20:18.913Z,18.75
2019-05-10T16:22:45.669Z,18.71
2019-05-10T16:25:12.656Z,18.56
2019-05-10T16:27:44.369Z,18.60
2019-05-10T16:30:12.117Z,18.71
2019-05-10T16:32:36.890Z,18.70
2019-05-10T16:35:12.535Z,18.60
2019-05-10T16:37:32.848Z,18.59
2019-05-10T16:39:59.624Z,17.51
2019-05-10T16:42:27.779Z,18.48
2019-05-10T16:44:55.220Z,18.44
2019-05-10T16:47:21.934Z,18.43
2019-05-10T16:49:53.444Z,18.26
2019-05-10T16:52:19.605Z,18.58
2019-05-10T16:54:49.111Z,18.94
2019-05-10T16:57:15.857Z,18.77
2019-05-10T16:59:42.576Z,18.82
2019-05-10T17:02:11.900Z,18.76
2019-05-10T17:04:39.831Z,18.74
2019-05-10T17:07:06.778Z,18.53
2019-05-10T17:09:33.729Z,18.55
2019-05-10T17:12:00.483Z,18.48
2019-05-10T17:14:27.211Z,18.40
2019-05-10T17:16:58.291Z,18.35
2019-05-10T17:19:27.778Z,18.26
2019-05-10T17:21:51.614Z,18.44
2019-05-10T17:24:23.515Z,18.63
2019-05-10T17:26:46.975Z,18.46
2019-05-10T17:29:14.772Z,18.38
2019-05-10T17:31:45.689Z,18.43
2019-05-10T17:34:22.132Z,18.38
2019-05-10T17:36:40.015Z,18.37
2019-05-10T17:39:06.826Z,18.31
2019-05-10T17:41:33.546Z,18.35
2019-05-10T17:44:00.779Z,18.34
2019-05-10T17:46:27.479Z,18.39
2019-05-10T17:48:54.235Z,18.26
2019-05-10T17:51:20.942Z,18.20
2019-05-10T17:53:48.023Z,18.32
2019-05-10T17:56:14.743Z,18.33
2019-05-10T17:58:41.494Z,18.29
2019-05-10T18:01:12.624Z,18.34
2019-05-10T18:03:43.591Z,18.27
2019-05-10T18:06:23.079Z,18.12
2019-05-10T18:08:39.298Z,18.02
2019-05-10T18:11:06.363Z,18.05
2019-05-10T18:13:35.679Z,18.05
2019-05-10T18:16:04.626Z,18.00
2019-05-10T18:18:35.913Z,17.92
2019-05-10T18:20:59.049Z,17.84
2019-05-10T18:23:25.740Z,17.81
2019-05-10T18:25:58.502Z,17.76
2019-05-10T18:28:21.699Z,17.66
2019-05-10T18:30:48.824Z,17.47
2019-05-10T18:33:15.563Z,17.35
2019-05-10T18:35:42.331Z,17.29
2019-05-10T18:38:09.053Z,17.28
2019-05-10T18:40:35.800Z,17.31
2019-05-10T18:43:04.465Z,17.29
2019-05-10T18:45:31.253Z,17.13
2019-05-10T18:47:58.041Z,17.10
2019-05-10T18:50:25.133Z,17.03
2019-05-10T18:52:51.867Z,16.97
2019-05-10T18:55:18.702Z,16.90
2019-05-10T18:57:50.382Z,16.84
2019-05-10T19:00:17.514Z,16.78
2019-05-10T19:02:43.810Z,16.76
2019-05-10T19:05:13.496Z,16.77
2019-05-10T19:07:40.326Z,16.78
2019-05-10T19:10:07.066Z,16.83
2019-05-10T19:12:34.115Z,16.82
2019-05-10T19:15:02.391Z,16.81
2019-05-10T19:17:30.360Z,16.78
2019-05-10T19:19:57.110Z,16.90
2019-05-10T19:22:23.851Z,16.89
2019-05-10T19:24:50.990Z,16.88
2019-05-10T19:27:17.695Z,16.77
2019-05-10T19:29:46.080Z,16.63
2019-05-10T19:32:18.030Z,16.59
2019-05-10T19:34:42.530Z,16.70
2019-05-10T19:37:09.381Z,16.59
2019-05-10T19:39:36.158Z,16.55
2019-05-10T19:42:05.866Z,16.51
2019-05-10T19:44:40.322Z,16.45
2019-05-10T19:47:04.881Z,16.43
2019-05-10T19:49:31.671Z,16.43
2019-05-10T19:51:59.063Z,16.37
2019-05-10T19:54:25.849Z,16.34
2019-05-10T19:56:55.234Z,16.29
2019-05-10T19:59:21.197Z,16.25
2019-05-10T20:01:47.913Z,16.14
2019-05-10T20:04:14.697Z,16.14
2019-05-10T20:06:41.431Z,16.11
2019-05-10T20:09:08.189Z,16.12
2019-05-10T20:11:35.235Z,16.16
2019-05-10T20:14:02.295Z,16.09
2019-05-10T20:16:29.447Z,16.03
2019-05-10T20:18:56.319Z,15.96
2019-05-10T20:21:23.079Z,15.79
2019-05-10T20:23:50.061Z,15.78
2019-05-10T20:26:16.961Z,15.80
2019-05-10T20:28:43.715Z,15.80
2019-05-10T20:31:10.891Z,15.80
2019-05-10T20:33:37.746Z,15.73
2019-05-10T20:36:04.735Z,15.84
2019-05-10T20:38:31.509Z,15.73
2019-05-10T20:40:58.215Z,15.66
2019-05-10T20:43:24.937Z,15.70
2019-05-10T20:45:51.648Z,15.60
2019-05-10T20:48:18.551Z,15.49
2019-05-10T20:50:45.689Z,15.41
2019-05-10T20:53:12.436Z,15.38
2019-05-10T20:55:39.235Z,15.42
2019-05-10T20:58:06.182Z,15.43
2019-05-10T21:00:32.979Z,15.38
2019-05-10T21:02:59.712Z,15.34
2019-05-10T21:05:26.553Z,15.30
2019-05-10T21:07:53.291Z,15.27
2019-05-10T21:10:20.053Z,15.34
2019-05-10T21:12:46.895Z,15.22
2019-05-10T21:15:13.663Z,15.09
2019-05-10T21:17:40.613Z,15.12
2019-05-10T21:20:07.355Z,15.11
2019-05-10T21:22:34.593Z,15.00
2019-05-10T21:25:01.333Z,14.99
2019-05-10T21:27:28.277Z,14.98
2019-05-10T21:29:55.384Z,15.04
2019-05-10T21:32:24.529Z,14.97
2019-05-10T21:34:51.456Z,14.95
2019-05-10T21:37:18.289Z,14.99
2019-05-10T21:39:45.023Z,14.89
2019-05-10T21:42:11.735Z,14.78
2019-05-10T21:44:38.493Z,14.58
2019-05-10T21:47:05.676Z,14.59
2019-05-10T21:49:32.836Z,14.59
2019-05-10T21:51:59.959Z,14.63
2019-05-10T21:54:26.927Z,14.64
2019-05-10T21:56:53.973Z,14.66
2019-05-10T21:59:20.789Z,14.65
2019-05-10T22:01:47.583Z,14.59
2019-05-10T22:04:14.725Z,14.62
2019-05-10T22:06:41.687Z,14.63
2019-05-10T22:09:09.417Z,14.63
2019-05-10T22:11:36.230Z,14.58
2019-05-10T22:14:03.009Z,14.51
2019-05-10T22:16:29.732Z,14.47
2019-05-10T22:19:00.942Z,14.49
2019-05-10T22:21:27.703Z,14.47
2019-05-10T22:23:54.447Z,14.36
2019-05-10T22:26:21.207Z,14.44
2019-05-10T22:28:48.032Z,14.44
2019-05-10T22:31:14.802Z,14.43
2019-05-10T22:33:41.779Z,14.43
2019-05-10T22:36:08.627Z,14.38
2019-05-10T22:38:35.662Z,14.35
2019-05-10T22:41:02.407Z,14.35
2019-05-10T22:43:29.114Z,14.34
2019-05-10T22:45:56.028Z,14.23
2019-05-10T22:48:23.057Z,14.18
2019-05-10T22:50:50.793Z,14.16
2019-05-10T22:53:17.540Z,14.11
2019-05-10T22:55:44.642Z,13.95
2019-05-10T22:58:11.455Z,13.82
2019-05-10T23:00:38.410Z,13.89
2019-05-10T23:03:05.234Z,13.98
2019-05-10T23:05:31.955Z,14.04
2019-05-10T23:07:58.760Z,13.96
2019-05-10T23:10:25.767Z,13.99
2019-05-10T23:12:52.505Z,13.98
2019-05-10T23:15:19.725Z,14.03
2019-05-10T23:17:46.541Z,14.01
2019-05-10T23:20:15.542Z,14.06
2019-05-10T23:22:42.250Z,14.01
2019-05-10T23:25:12.030Z,14.04
2019-05-10T23:27:38.743Z,14.06
2019-05-10T23:30:05.506Z,14.04
2019-05-10T23:32:32.343Z,13.93
2019-05-10T23:34:59.061Z,13.95
2019-05-10T23:37:25.816Z,13.97
2019-05-10T23:39:52.530Z,13.91
2019-05-10T23:42:21.377Z,13.91
2019-05-10T23:44:52.160Z,13.71
2019-05-10T23:47:18.900Z,13.52
2019-05-10T23:49:45.656Z,13.56
2019-05-10T23:52:12.459Z,13.75
2019-05-10T23:54:39.304Z,13.81
2019-05-10T23:57:06.123Z,13.87
2019-05-10T23:59:32.871Z,13.90
